sensor_id;sensor_type;location;lat;lon;timestamp;P1;durP1;ratioP1;P2;durP2;ratioP2
7211;SDS011;3647;48.792;9.802;2023-06-04T00:02:18;5.67;;;4.33;;
7211;SDS011;3647;48.792;9.802;2023-06-04T00:04:44;4.93;;;4.07;;
7211;SDS011;3647;48.792;9.802;2023-06-04T00:07:11;4.90;;;3.60;;
7211;SDS011;3647;48.792;9.802;2023-06-04T00:09:38;5.23;;;3.90;;
7211;SDS011;3647;48.792;9.802;2023-06-04T00:12:05;5.87;;;3.60;;
7211;SDS011;3647;48.792;9.802;2023-06-04T00:14:33;4.53;;;3.60;;
7211;SDS011;3647;48.792;9.802;2023-06-04T00:17:00;4.63;;;3.83;;
7211;SDS011;3647;48.792;9.802;2023-06-04T00:19:27;4.97;;;4.03;;
7211;SDS011;3647;48.792;9.802;2023-06-04T00:21:54;5.77;;;3.80;;
7211;SDS011;3647;48.792;9.802;2023-06-04T00:24:21;6.20;;;3.63;;
7211;SDS011;3647;48.792;9.802;2023-06-04T00:26:48;4.83;;;3.53;;
7211;SDS011;3647;48.792;9.802;2023-06-04T00:29:15;4.37;;;3.60;;
7211;SDS011;3647;48.792;9.802;2023-06-04T00:31:43;4.63;;;4.10;;
7211;SDS011;3647;48.792;9.802;2023-06-04T00:34:09;6.40;;;4.07;;
7211;SDS011;3647;48.792;9.802;2023-06-04T00:36:36;3.73;;;3.30;;
7211;SDS011;3647;48.792;9.802;2023-06-04T00:39:03;5.37;;;3.63;;
7211;SDS011;3647;48.792;9.802;2023-06-04T00:41:30;4.93;;;3.87;;
7211;SDS011;3647;48.792;9.802;2023-06-04T00:43:57;3.53;;;3.20;;
7211;SDS011;3647;48.792;9.802;2023-06-04T00:46:27;5.00;;;3.57;;
7211;SDS011;3647;48.792;9.802;2023-06-04T00:48:57;5.27;;;3.33;;
7211;SDS011;3647;48.792;9.802;2023-06-04T00:51:24;4.27;;;3.43;;
7211;SDS011;3647;48.792;9.802;2023-06-04T00:53:51;4.50;;;3.00;;
7211;SDS011;3647;48.792;9.802;2023-06-04T00:56:18;4.93;;;2.70;;
7211;SDS011;3647;48.792;9.802;2023-06-04T00:58:46;4.17;;;3.33;;
7211;SDS011;3647;48.792;9.802;2023-06-04T01:01:15;4.27;;;3.13;;
7211;SDS011;3647;48.792;9.802;2023-06-04T01:03:48;3.50;;;3.20;;
7211;SDS011;3647;48.792;9.802;2023-06-04T01:06:23;3.60;;;3.30;;
7211;SDS011;3647;48.792;9.802;2023-06-04T01:08:57;4.07;;;3.20;;
7211;SDS011;3647;48.792;9.802;2023-06-04T01:11:31;3.10;;;2.50;;
7211;SDS011;3647;48.792;9.802;2023-06-04T01:13:59;5.17;;;3.50;;
7211;SDS011;3647;48.792;9.802;2023-06-04T01:16:26;4.23;;;2.80;;
7211;SDS011;3647;48.792;9.802;2023-06-04T01:18:56;4.77;;;2.83;;
7211;SDS011;3647;48.792;9.802;2023-06-04T01:21:28;4.80;;;2.90;;
7211;SDS011;3647;48.792;9.802;2023-06-04T01:24:00;4.00;;;2.90;;
7211;SDS011;3647;48.792;9.802;2023-06-04T01:26:32;4.07;;;2.90;;
7211;SDS011;3647;48.792;9.802;2023-06-04T01:28:58;3.40;;;2.57;;
7211;SDS011;3647;48.792;9.802;2023-06-04T01:31:27;3.73;;;2.90;;
7211;SDS011;3647;48.792;9.802;2023-06-04T01:33:57;2.83;;;2.57;;
7211;SDS011;3647;48.792;9.802;2023-06-04T01:36:24;3.87;;;3.17;;
7211;SDS011;3647;48.792;9.802;2023-06-04T01:38:53;3.63;;;2.90;;
7211;SDS011;3647;48.792;9.802;2023-06-04T01:41:20;4.57;;;2.70;;
7211;SDS011;3647;48.792;9.802;2023-06-04T01:43:46;3.00;;;2.50;;
7211;SDS011;3647;48.792;9.802;2023-06-04T01:46:13;3.10;;;2.57;;
7211;SDS011;3647;48.792;9.802;2023-06-04T01:48:40;3.53;;;2.80;;
7211;SDS011;3647;48.792;9.802;2023-06-04T01:51:07;6.23;;;3.20;;
7211;SDS011;3647;48.792;9.802;2023-06-04T01:53:33;5.07;;;2.87;;
7211;SDS011;3647;48.792;9.802;2023-06-04T01:56:02;4.27;;;2.57;;
7211;SDS011;3647;48.792;9.802;2023-06-04T01:58:29;4.23;;;3.40;;
7211;SDS011;3647;48.792;9.802;2023-06-04T02:00:57;2.67;;;2.47;;
7211;SDS011;3647;48.792;9.802;2023-06-04T02:03:25;3.90;;;3.37;;
7211;SDS011;3647;48.792;9.802;2023-06-04T02:05:52;4.47;;;2.80;;
7211;SDS011;3647;48.792;9.802;2023-06-04T02:08:19;5.53;;;3.80;;
7211;SDS011;3647;48.792;9.802;2023-06-04T02:10:46;3.20;;;2.90;;
7211;SDS011;3647;48.792;9.802;2023-06-04T02:13:14;4.93;;;2.73;;
7211;SDS011;3647;48.792;9.802;2023-06-04T02:15:41;4.13;;;2.87;;
7211;SDS011;3647;48.792;9.802;2023-06-04T02:18:12;3.63;;;3.23;;
7211;SDS011;3647;48.792;9.802;2023-06-04T02:20:41;3.37;;;2.57;;
7211;SDS011;3647;48.792;9.802;2023-06-04T02:23:08;5.17;;;3.03;;
7211;SDS011;3647;48.792;9.802;2023-06-04T02:25:35;2.70;;;2.40;;
7211;SDS011;3647;48.792;9.802;2023-06-04T02:28:02;3.73;;;3.33;;
7211;SDS011;3647;48.792;9.802;2023-06-04T02:30:30;4.90;;;3.07;;
7211;SDS011;3647;48.792;9.802;2023-06-04T02:32:57;3.53;;;3.20;;
7211;SDS011;3647;48.792;9.802;2023-06-04T02:35:26;3.23;;;2.93;;
7211;SDS011;3647;48.792;9.802;2023-06-04T02:37:52;3.40;;;3.10;;
7211;SDS011;3647;48.792;9.802;2023-06-04T02:40:21;3.13;;;2.83;;
7211;SDS011;3647;48.792;9.802;2023-06-04T02:42:48;3.83;;;2.60;;
7211;SDS011;3647;48.792;9.802;2023-06-04T02:45:15;3.17;;;2.80;;
7211;SDS011;3647;48.792;9.802;2023-06-04T02:47:43;3.97;;;2.97;;
7211;SDS011;3647;48.792;9.802;2023-06-04T02:50:10;3.97;;;3.17;;
7211;SDS011;3647;48.792;9.802;2023-06-04T02:52:37;3.43;;;2.67;;
7211;SDS011;3647;48.792;9.802;2023-06-04T02:55:05;3.23;;;2.70;;
7211;SDS011;3647;48.792;9.802;2023-06-04T02:57:33;3.83;;;2.80;;
7211;SDS011;3647;48.792;9.802;2023-06-04T03:00:01;3.13;;;2.83;;
7211;SDS011;3647;48.792;9.802;2023-06-04T03:02:35;2.80;;;2.60;;
7211;SDS011;3647;48.792;9.802;2023-06-04T03:05:04;4.47;;;2.57;;
7211;SDS011;3647;48.792;9.802;2023-06-04T03:07:31;2.93;;;2.53;;
7211;SDS011;3647;48.792;9.802;2023-06-04T03:09:58;3.30;;;3.00;;
7211;SDS011;3647;48.792;9.802;2023-06-04T03:12:25;3.80;;;2.57;;
7211;SDS011;3647;48.792;9.802;2023-06-04T03:14:51;2.60;;;2.40;;
7211;SDS011;3647;48.792;9.802;2023-06-04T03:17:18;2.50;;;2.30;;
7211;SDS011;3647;48.792;9.802;2023-06-04T03:19:45;3.63;;;2.33;;
7211;SDS011;3647;48.792;9.802;2023-06-04T03:22:14;3.60;;;2.70;;
7211;SDS011;3647;48.792;9.802;2023-06-04T03:24:41;3.97;;;2.70;;
7211;SDS011;3647;48.792;9.802;2023-06-04T03:27:08;3.17;;;2.43;;
7211;SDS011;3647;48.792;9.802;2023-06-04T03:29:35;3.33;;;2.67;;
7211;SDS011;3647;48.792;9.802;2023-06-04T03:32:03;4.47;;;2.60;;
7211;SDS011;3647;48.792;9.802;2023-06-04T03:34:30;3.60;;;2.60;;
7211;SDS011;3647;48.792;9.802;2023-06-04T03:36:58;4.13;;;3.00;;
7211;SDS011;3647;48.792;9.802;2023-06-04T03:39:26;3.30;;;2.70;;
7211;SDS011;3647;48.792;9.802;2023-06-04T03:41:53;3.67;;;2.70;;
7211;SDS011;3647;48.792;9.802;2023-06-04T03:44:21;2.57;;;2.37;;
7211;SDS011;3647;48.792;9.802;2023-06-04T03:46:48;2.37;;;2.20;;
7211;SDS011;3647;48.792;9.802;2023-06-04T03:49:15;2.83;;;2.43;;
7211;SDS011;3647;48.792;9.802;2023-06-04T03:51:43;3.13;;;2.63;;
7211;SDS011;3647;48.792;9.802;2023-06-04T03:54:10;2.53;;;2.33;;
7211;SDS011;3647;48.792;9.802;2023-06-04T03:56:43;2.63;;;2.37;;
7211;SDS011;3647;48.792;9.802;2023-06-04T03:59:10;2.67;;;2.33;;
7211;SDS011;3647;48.792;9.802;2023-06-04T04:01:36;4.40;;;2.77;;
7211;SDS011;3647;48.792;9.802;2023-06-04T04:04:03;4.60;;;2.63;;
7211;SDS011;3647;48.792;9.802;2023-06-04T04:06:30;3.40;;;2.30;;
7211;SDS011;3647;48.792;9.802;2023-06-04T04:08:57;2.80;;;2.43;;
7211;SDS011;3647;48.792;9.802;2023-06-04T04:11:24;3.40;;;2.40;;
7211;SDS011;3647;48.792;9.802;2023-06-04T04:13:53;2.60;;;2.40;;
7211;SDS011;3647;48.792;9.802;2023-06-04T04:16:19;3.23;;;2.27;;
7211;SDS011;3647;48.792;9.802;2023-06-04T04:18:46;2.30;;;2.10;;
7211;SDS011;3647;48.792;9.802;2023-06-04T04:21:13;2.77;;;2.27;;
7211;SDS011;3647;48.792;9.802;2023-06-04T04:23:39;3.23;;;2.17;;
7211;SDS011;3647;48.792;9.802;2023-06-04T04:26:07;3.17;;;2.10;;
7211;SDS011;3647;48.792;9.802;2023-06-04T04:28:35;2.90;;;2.13;;
7211;SDS011;3647;48.792;9.802;2023-06-04T04:31:03;2.80;;;2.30;;
7211;SDS011;3647;48.792;9.802;2023-06-04T04:33:31;2.40;;;2.20;;
7211;SDS011;3647;48.792;9.802;2023-06-04T04:36:01;1.98;;;1.88;;
7211;SDS011;3647;48.792;9.802;2023-06-04T04:38:28;2.90;;;1.90;;
7211;SDS011;3647;48.792;9.802;2023-06-04T04:40:58;3.42;;;1.90;;
7211;SDS011;3647;48.792;9.802;2023-06-04T04:43:28;2.58;;;2.22;;
7211;SDS011;3647;48.792;9.802;2023-06-04T04:45:56;6.70;;;2.03;;
7211;SDS011;3647;48.792;9.802;2023-06-04T04:48:24;2.22;;;1.48;;
7211;SDS011;3647;48.792;9.802;2023-06-04T04:50:51;2.13;;;1.90;;
7211;SDS011;3647;48.792;9.802;2023-06-04T04:53:18;2.25;;;1.75;;
7211;SDS011;3647;48.792;9.802;2023-06-04T04:55:45;2.20;;;1.63;;
7211;SDS011;3647;48.792;9.802;2023-06-04T04:58:12;2.70;;;1.70;;
7211;SDS011;3647;48.792;9.802;2023-06-04T05:00:40;1.63;;;1.42;;
7211;SDS011;3647;48.792;9.802;2023-06-04T05:03:06;2.58;;;1.60;;
7211;SDS011;3647;48.792;9.802;2023-06-04T05:05:35;2.08;;;1.40;;
7211;SDS011;3647;48.792;9.802;2023-06-04T05:08:02;1.40;;;1.30;;
7211;SDS011;3647;48.792;9.802;2023-06-04T05:10:29;4.38;;;1.48;;
7211;SDS011;3647;48.792;9.802;2023-06-04T05:12:56;2.40;;;1.10;;
7211;SDS011;3647;48.792;9.802;2023-06-04T05:15:24;2.47;;;1.50;;
7211;SDS011;3647;48.792;9.802;2023-06-04T05:17:52;2.47;;;1.30;;
7211;SDS011;3647;48.792;9.802;2023-06-04T05:20:21;3.60;;;1.17;;
7211;SDS011;3647;48.792;9.802;2023-06-04T05:22:49;2.25;;;1.38;;
7211;SDS011;3647;48.792;9.802;2023-06-04T05:25:16;2.95;;;1.33;;
7211;SDS011;3647;48.792;9.802;2023-06-04T05:27:43;1.40;;;1.20;;
7211;SDS011;3647;48.792;9.802;2023-06-04T05:30:10;1.63;;;1.40;;
7211;SDS011;3647;48.792;9.802;2023-06-04T05:32:38;1.42;;;1.33;;
7211;SDS011;3647;48.792;9.802;2023-06-04T05:35:06;1.35;;;1.15;;
7211;SDS011;3647;48.792;9.802;2023-06-04T05:37:34;1.52;;;1.23;;
7211;SDS011;3647;48.792;9.802;2023-06-04T05:40:05;3.85;;;1.45;;
7211;SDS011;3647;48.792;9.802;2023-06-04T05:42:32;1.60;;;1.10;;
7211;SDS011;3647;48.792;9.802;2023-06-04T05:44:59;3.10;;;1.30;;
7211;SDS011;3647;48.792;9.802;2023-06-04T05:47:26;2.15;;;1.60;;
7211;SDS011;3647;48.792;9.802;2023-06-04T05:49:54;1.45;;;1.35;;
7211;SDS011;3647;48.792;9.802;2023-06-04T05:52:21;3.15;;;1.55;;
7211;SDS011;3647;48.792;9.802;2023-06-04T05:54:48;2.65;;;1.50;;
7211;SDS011;3647;48.792;9.802;2023-06-04T05:57:16;1.73;;;1.42;;
7211;SDS011;3647;48.792;9.802;2023-06-04T05:59:43;1.40;;;1.30;;
7211;SDS011;3647;48.792;9.802;2023-06-04T06:02:10;2.45;;;1.55;;
7211;SDS011;3647;48.792;9.802;2023-06-04T06:04:37;2.33;;;1.90;;
7211;SDS011;3647;48.792;9.802;2023-06-04T06:07:04;1.70;;;1.35;;
7211;SDS011;3647;48.792;9.802;2023-06-04T06:09:31;1.90;;;1.50;;
7211;SDS011;3647;48.792;9.802;2023-06-04T06:11:58;2.30;;;1.60;;
7211;SDS011;3647;48.792;9.802;2023-06-04T06:14:26;4.93;;;1.50;;
7211;SDS011;3647;48.792;9.802;2023-06-04T06:16:52;1.65;;;1.50;;
7211;SDS011;3647;48.792;9.802;2023-06-04T06:19:19;1.90;;;1.77;;
7211;SDS011;3647;48.792;9.802;2023-06-04T06:21:46;1.85;;;1.60;;
7211;SDS011;3647;48.792;9.802;2023-06-04T06:24:13;2.13;;;1.73;;
7211;SDS011;3647;48.792;9.802;2023-06-04T06:26:39;2.20;;;1.60;;
7211;SDS011;3647;48.792;9.802;2023-06-04T06:29:07;1.60;;;1.45;;
7211;SDS011;3647;48.792;9.802;2023-06-04T06:31:35;5.40;;;1.90;;
7211;SDS011;3647;48.792;9.802;2023-06-04T06:34:02;2.60;;;1.70;;
7211;SDS011;3647;48.792;9.802;2023-06-04T06:36:29;4.38;;;1.95;;
7211;SDS011;3647;48.792;9.802;2023-06-04T06:38:57;4.38;;;1.92;;
7211;SDS011;3647;48.792;9.802;2023-06-04T06:41:24;2.30;;;1.80;;
7211;SDS011;3647;48.792;9.802;2023-06-04T06:43:52;1.63;;;1.50;;
7211;SDS011;3647;48.792;9.802;2023-06-04T06:46:18;1.67;;;1.55;;
7211;SDS011;3647;48.792;9.802;2023-06-04T06:48:47;1.70;;;1.60;;
7211;SDS011;3647;48.792;9.802;2023-06-04T06:51:14;2.83;;;1.67;;
7211;SDS011;3647;48.792;9.802;2023-06-04T06:53:42;1.73;;;1.63;;
7211;SDS011;3647;48.792;9.802;2023-06-04T06:56:09;2.35;;;1.80;;
7211;SDS011;3647;48.792;9.802;2023-06-04T06:58:36;1.55;;;1.45;;
7211;SDS011;3647;48.792;9.802;2023-06-04T07:01:03;1.73;;;1.60;;
7211;SDS011;3647;48.792;9.802;2023-06-04T07:03:30;1.77;;;1.50;;
7211;SDS011;3647;48.792;9.802;2023-06-04T07:05:59;1.90;;;1.70;;
7211;SDS011;3647;48.792;9.802;2023-06-04T07:08:25;2.42;;;1.75;;
7211;SDS011;3647;48.792;9.802;2023-06-04T07:10:53;2.58;;;1.90;;
7211;SDS011;3647;48.792;9.802;2023-06-04T07:13:20;2.05;;;1.60;;
7211;SDS011;3647;48.792;9.802;2023-06-04T07:15:46;1.98;;;1.77;;
7211;SDS011;3647;48.792;9.802;2023-06-04T07:18:13;1.83;;;1.63;;
7211;SDS011;3647;48.792;9.802;2023-06-04T07:20:40;2.08;;;1.88;;
7211;SDS011;3647;48.792;9.802;2023-06-04T07:23:08;1.70;;;1.60;;
7211;SDS011;3647;48.792;9.802;2023-06-04T07:25:35;2.20;;;1.75;;
7211;SDS011;3647;48.792;9.802;2023-06-04T07:28:02;3.45;;;1.80;;
7211;SDS011;3647;48.792;9.802;2023-06-04T07:30:30;1.83;;;1.40;;
7211;SDS011;3647;48.792;9.802;2023-06-04T07:32:57;2.05;;;1.73;;
7211;SDS011;3647;48.792;9.802;2023-06-04T07:35:24;2.25;;;1.90;;
7211;SDS011;3647;48.792;9.802;2023-06-04T07:37:50;1.98;;;1.70;;
7211;SDS011;3647;48.792;9.802;2023-06-04T07:40:19;2.33;;;1.50;;
7211;SDS011;3647;48.792;9.802;2023-06-04T07:42:46;3.15;;;1.67;;
7211;SDS011;3647;48.792;9.802;2023-06-04T07:45:13;2.10;;;1.90;;
7211;SDS011;3647;48.792;9.802;2023-06-04T07:47:40;3.85;;;1.92;;
7211;SDS011;3647;48.792;9.802;2023-06-04T07:50:07;2.10;;;1.80;;
7211;SDS011;3647;48.792;9.802;2023-06-04T07:52:34;3.35;;;1.40;;
7211;SDS011;3647;48.792;9.802;2023-06-04T07:55:01;2.22;;;2.00;;
7211;SDS011;3647;48.792;9.802;2023-06-04T07:57:29;1.92;;;1.67;;
7211;SDS011;3647;48.792;9.802;2023-06-04T07:59:56;2.28;;;1.77;;
7211;SDS011;3647;48.792;9.802;2023-06-04T08:02:24;3.17;;;1.98;;
7211;SDS011;3647;48.792;9.802;2023-06-04T08:04:51;2.03;;;1.80;;
7211;SDS011;3647;48.792;9.802;2023-06-04T08:07:18;1.85;;;1.55;;
7211;SDS011;3647;48.792;9.802;2023-06-04T08:09:45;2.13;;;1.90;;
7211;SDS011;3647;48.792;9.802;2023-06-04T08:12:11;4.07;;;1.85;;
7211;SDS011;3647;48.792;9.802;2023-06-04T08:14:39;2.15;;;1.70;;
7211;SDS011;3647;48.792;9.802;2023-06-04T08:17:06;1.90;;;1.80;;
7211;SDS011;3647;48.792;9.802;2023-06-04T08:19:33;2.03;;;1.73;;
7211;SDS011;3647;48.792;9.802;2023-06-04T08:22:00;4.72;;;3.03;;
7211;SDS011;3647;48.792;9.802;2023-06-04T08:24:26;2.95;;;1.73;;
7211;SDS011;3647;48.792;9.802;2023-06-04T08:26:53;3.58;;;2.10;;
7211;SDS011;3647;48.792;9.802;2023-06-04T08:29:20;2.80;;;2.05;;
7211;SDS011;3647;48.792;9.802;2023-06-04T08:31:48;2.28;;;2.08;;
7211;SDS011;3647;48.792;9.802;2023-06-04T08:34:15;1.90;;;1.70;;
7211;SDS011;3647;48.792;9.802;2023-06-04T08:36:42;2.30;;;2.10;;
7211;SDS011;3647;48.792;9.802;2023-06-04T08:39:09;2.83;;;2.08;;
7211;SDS011;3647;48.792;9.802;2023-06-04T08:41:38;2.28;;;1.90;;
7211;SDS011;3647;48.792;9.802;2023-06-04T08:44:09;2.65;;;1.98;;
7211;SDS011;3647;48.792;9.802;2023-06-04T08:46:36;3.13;;;2.10;;
7211;SDS011;3647;48.792;9.802;2023-06-04T08:49:06;4.55;;;2.33;;
7211;SDS011;3647;48.792;9.802;2023-06-04T08:51:34;2.85;;;1.90;;
7211;SDS011;3647;48.792;9.802;2023-06-04T08:54:03;2.53;;;1.85;;
7211;SDS011;3647;48.792;9.802;2023-06-04T08:56:32;2.05;;;1.55;;
7211;SDS011;3647;48.792;9.802;2023-06-04T08:58:59;2.80;;;1.98;;
7211;SDS011;3647;48.792;9.802;2023-06-04T09:01:27;2.30;;;2.10;;
7211;SDS011;3647;48.792;9.802;2023-06-04T09:03:54;2.30;;;2.10;;
7211;SDS011;3647;48.792;9.802;2023-06-04T09:06:24;2.20;;;1.98;;
7211;SDS011;3647;48.792;9.802;2023-06-04T09:08:51;2.20;;;1.77;;
7211;SDS011;3647;48.792;9.802;2023-06-04T09:11:22;3.17;;;1.83;;
7211;SDS011;3647;48.792;9.802;2023-06-04T09:13:52;4.03;;;2.17;;
7211;SDS011;3647;48.792;9.802;2023-06-04T09:16:19;2.13;;;1.95;;
7211;SDS011;3647;48.792;9.802;2023-06-04T09:18:46;3.33;;;2.00;;
7211;SDS011;3647;48.792;9.802;2023-06-04T09:21:13;2.75;;;1.80;;
7211;SDS011;3647;48.792;9.802;2023-06-04T09:23:44;4.20;;;2.00;;
7211;SDS011;3647;48.792;9.802;2023-06-04T09:26:12;3.10;;;2.45;;
7211;SDS011;3647;48.792;9.802;2023-06-04T09:28:40;2.50;;;1.92;;
7211;SDS011;3647;48.792;9.802;2023-06-04T09:31:08;2.13;;;1.90;;
7211;SDS011;3647;48.792;9.802;2023-06-04T09:33:41;3.38;;;1.90;;
7211;SDS011;3647;48.792;9.802;2023-06-04T09:36:09;3.83;;;2.20;;
7211;SDS011;3647;48.792;9.802;2023-06-04T09:38:36;3.13;;;2.00;;
7211;SDS011;3647;48.792;9.802;2023-06-04T09:41:05;2.17;;;1.92;;
7211;SDS011;3647;48.792;9.802;2023-06-04T09:43:37;3.45;;;2.30;;
7211;SDS011;3647;48.792;9.802;2023-06-04T09:46:08;3.53;;;2.13;;
7211;SDS011;3647;48.792;9.802;2023-06-04T09:48:36;2.78;;;1.90;;
7211;SDS011;3647;48.792;9.802;2023-06-04T09:51:07;2.20;;;2.00;;
7211;SDS011;3647;48.792;9.802;2023-06-04T09:53:35;3.00;;;1.75;;
7211;SDS011;3647;48.792;9.802;2023-06-04T09:56:03;2.45;;;1.90;;
7211;SDS011;3647;48.792;9.802;2023-06-04T09:58:33;3.15;;;1.98;;
7211;SDS011;3647;48.792;9.802;2023-06-04T10:01:04;3.28;;;2.10;;
7211;SDS011;3647;48.792;9.802;2023-06-04T10:03:32;2.78;;;2.40;;
7211;SDS011;3647;48.792;9.802;2023-06-04T10:06:01;4.32;;;1.95;;
7211;SDS011;3647;48.792;9.802;2023-06-04T10:08:30;3.13;;;1.63;;
7211;SDS011;3647;48.792;9.802;2023-06-04T10:10:59;3.72;;;2.33;;
7211;SDS011;3647;48.792;9.802;2023-06-04T10:13:29;4.03;;;2.30;;
7211;SDS011;3647;48.792;9.802;2023-06-04T10:15:57;3.28;;;2.35;;
7211;SDS011;3647;48.792;9.802;2023-06-04T10:18:24;3.88;;;2.40;;
7211;SDS011;3647;48.792;9.802;2023-06-04T10:20:54;1.92;;;1.83;;
7211;SDS011;3647;48.792;9.802;2023-06-04T10:23:22;4.20;;;2.22;;
7211;SDS011;3647;48.792;9.802;2023-06-04T10:25:49;2.70;;;2.22;;
7211;SDS011;3647;48.792;9.802;2023-06-04T10:28:19;2.63;;;2.00;;
7211;SDS011;3647;48.792;9.802;2023-06-04T10:30:47;2.10;;;1.77;;
7211;SDS011;3647;48.792;9.802;2023-06-04T10:33:15;3.17;;;2.30;;
7211;SDS011;3647;48.792;9.802;2023-06-04T10:35:45;3.75;;;2.13;;
7211;SDS011;3647;48.792;9.802;2023-06-04T10:38:12;2.72;;;1.98;;
7211;SDS011;3647;48.792;9.802;2023-06-04T10:40:41;2.85;;;2.55;;
7211;SDS011;3647;48.792;9.802;2023-06-04T10:43:09;2.50;;;2.30;;
7211;SDS011;3647;48.792;9.802;2023-06-04T10:45:36;2.60;;;2.40;;
7211;SDS011;3647;48.792;9.802;2023-06-04T10:48:05;3.00;;;2.08;;
7211;SDS011;3647;48.792;9.802;2023-06-04T10:50:33;5.55;;;2.78;;
7211;SDS011;3647;48.792;9.802;2023-06-04T10:53:01;2.75;;;2.40;;
7211;SDS011;3647;48.792;9.802;2023-06-04T10:55:29;3.22;;;2.42;;
7211;SDS011;3647;48.792;9.802;2023-06-04T10:57:56;2.70;;;2.50;;
7211;SDS011;3647;48.792;9.802;2023-06-04T11:00:34;2.97;;;2.45;;
7211;SDS011;3647;48.792;9.802;2023-06-04T11:03:01;5.10;;;2.80;;
7211;SDS011;3647;48.792;9.802;2023-06-04T11:05:34;3.17;;;2.35;;
7211;SDS011;3647;48.792;9.802;2023-06-04T11:08:02;2.65;;;2.22;;
7211;SDS011;3647;48.792;9.802;2023-06-04T11:10:34;2.63;;;2.38;;
7211;SDS011;3647;48.792;9.802;2023-06-04T11:13:01;4.15;;;2.88;;
7211;SDS011;3647;48.792;9.802;2023-06-04T11:15:37;3.80;;;2.33;;
7211;SDS011;3647;48.792;9.802;2023-06-04T11:18:04;4.07;;;2.45;;
7211;SDS011;3647;48.792;9.802;2023-06-04T11:20:31;4.85;;;2.30;;
7211;SDS011;3647;48.792;9.802;2023-06-04T11:22:59;2.70;;;2.20;;
7211;SDS011;3647;48.792;9.802;2023-06-04T11:25:28;4.85;;;3.33;;
7211;SDS011;3647;48.792;9.802;2023-06-04T11:27:58;3.45;;;2.63;;
7211;SDS011;3647;48.792;9.802;2023-06-04T11:30:26;3.30;;;2.53;;
7211;SDS011;3647;48.792;9.802;2023-06-04T11:33:00;5.07;;;2.40;;
7211;SDS011;3647;48.792;9.802;2023-06-04T11:35:28;2.97;;;2.28;;
7211;SDS011;3647;48.792;9.802;2023-06-04T11:37:55;2.85;;;2.50;;
7211;SDS011;3647;48.792;9.802;2023-06-04T11:40:24;3.13;;;2.50;;
7211;SDS011;3647;48.792;9.802;2023-06-04T11:42:52;3.33;;;2.50;;
7211;SDS011;3647;48.792;9.802;2023-06-04T11:45:20;4.53;;;2.17;;
7211;SDS011;3647;48.792;9.802;2023-06-04T11:47:48;3.85;;;2.50;;
7211;SDS011;3647;48.792;9.802;2023-06-04T11:50:17;3.88;;;2.78;;
7211;SDS011;3647;48.792;9.802;2023-06-04T11:52:44;2.55;;;2.35;;
7211;SDS011;3647;48.792;9.802;2023-06-04T11:55:11;2.88;;;2.58;;
7211;SDS011;3647;48.792;9.802;2023-06-04T11:57:41;2.80;;;2.38;;
7211;SDS011;3647;48.792;9.802;2023-06-04T12:00:08;3.08;;;2.30;;
7211;SDS011;3647;48.792;9.802;2023-06-04T12:02:35;3.35;;;2.42;;
7211;SDS011;3647;48.792;9.802;2023-06-04T12:05:12;2.63;;;2.30;;
7211;SDS011;3647;48.792;9.802;2023-06-04T12:07:39;3.10;;;2.70;;
7211;SDS011;3647;48.792;9.802;2023-06-04T12:10:06;2.47;;;2.28;;
7211;SDS011;3647;48.792;9.802;2023-06-04T12:12:33;2.60;;;2.40;;
7211;SDS011;3647;48.792;9.802;2023-06-04T12:15:02;2.63;;;2.20;;
7211;SDS011;3647;48.792;9.802;2023-06-04T12:17:30;4.50;;;2.70;;
7211;SDS011;3647;48.792;9.802;2023-06-04T12:19:57;2.55;;;2.33;;
7211;SDS011;3647;48.792;9.802;2023-06-04T12:22:24;3.70;;;2.75;;
7211;SDS011;3647;48.792;9.802;2023-06-04T12:24:52;2.40;;;1.95;;
7211;SDS011;3647;48.792;9.802;2023-06-04T12:27:21;3.15;;;2.17;;
7211;SDS011;3647;48.792;9.802;2023-06-04T12:29:55;2.50;;;2.25;;
7211;SDS011;3647;48.792;9.802;2023-06-04T12:32:27;5.97;;;3.00;;
7211;SDS011;3647;48.792;9.802;2023-06-04T12:34:54;3.58;;;2.70;;
7211;SDS011;3647;48.792;9.802;2023-06-04T12:37:22;2.95;;;2.50;;
7211;SDS011;3647;48.792;9.802;2023-06-04T12:39:50;2.80;;;2.58;;
7211;SDS011;3647;48.792;9.802;2023-06-04T12:42:17;2.58;;;2.22;;
7211;SDS011;3647;48.792;9.802;2023-06-04T12:44:45;4.43;;;2.63;;
7211;SDS011;3647;48.792;9.802;2023-06-04T12:47:12;3.15;;;2.15;;
7211;SDS011;3647;48.792;9.802;2023-06-04T12:49:41;2.85;;;2.10;;
7211;SDS011;3647;48.792;9.802;2023-06-04T12:52:08;2.40;;;2.20;;
7211;SDS011;3647;48.792;9.802;2023-06-04T12:54:34;2.38;;;2.08;;
7211;SDS011;3647;48.792;9.802;2023-06-04T12:57:01;2.75;;;2.55;;
7211;SDS011;3647;48.792;9.802;2023-06-04T12:59:28;3.30;;;2.70;;
7211;SDS011;3647;48.792;9.802;2023-06-04T13:01:55;2.63;;;2.30;;
7211;SDS011;3647;48.792;9.802;2023-06-04T13:04:22;3.95;;;2.75;;
7211;SDS011;3647;48.792;9.802;2023-06-04T13:06:51;3.72;;;2.63;;
7211;SDS011;3647;48.792;9.802;2023-06-04T13:09:20;2.95;;;2.42;;
7211;SDS011;3647;48.792;9.802;2023-06-04T13:11:48;4.10;;;2.58;;
7211;SDS011;3647;48.792;9.802;2023-06-04T13:14:15;4.40;;;2.78;;
7211;SDS011;3647;48.792;9.802;2023-06-04T13:16:42;3.55;;;2.80;;
7211;SDS011;3647;48.792;9.802;2023-06-04T13:19:10;2.75;;;2.00;;
7211;SDS011;3647;48.792;9.802;2023-06-04T13:21:37;3.38;;;2.25;;
7211;SDS011;3647;48.792;9.802;2023-06-04T13:24:06;3.90;;;2.45;;
7211;SDS011;3647;48.792;9.802;2023-06-04T13:26:34;3.13;;;2.55;;
7211;SDS011;3647;48.792;9.802;2023-06-04T13:29:00;2.55;;;2.35;;
7211;SDS011;3647;48.792;9.802;2023-06-04T13:31:27;2.90;;;2.13;;
7211;SDS011;3647;48.792;9.802;2023-06-04T13:33:54;2.55;;;2.33;;
7211;SDS011;3647;48.792;9.802;2023-06-04T13:36:21;3.08;;;2.20;;
7211;SDS011;3647;48.792;9.802;2023-06-04T13:38:48;3.05;;;2.38;;
7211;SDS011;3647;48.792;9.802;2023-06-04T13:41:18;2.90;;;2.15;;
7211;SDS011;3647;48.792;9.802;2023-06-04T13:43:46;3.80;;;2.95;;
7211;SDS011;3647;48.792;9.802;2023-06-04T13:46:12;3.00;;;2.53;;
7211;SDS011;3647;48.792;9.802;2023-06-04T13:48:39;2.58;;;2.35;;
7211;SDS011;3647;48.792;9.802;2023-06-04T13:51:06;5.10;;;2.22;;
7211;SDS011;3647;48.792;9.802;2023-06-04T13:53:33;2.33;;;2.13;;
7211;SDS011;3647;48.792;9.802;2023-06-04T13:55:59;3.03;;;2.50;;
7211;SDS011;3647;48.792;9.802;2023-06-04T13:58:28;2.97;;;2.58;;
7211;SDS011;3647;48.792;9.802;2023-06-04T14:00:54;3.90;;;2.58;;
7211;SDS011;3647;48.792;9.802;2023-06-04T14:03:21;3.65;;;2.83;;
7211;SDS011;3647;48.792;9.802;2023-06-04T14:05:48;3.10;;;2.55;;
7211;SDS011;3647;48.792;9.802;2023-06-04T14:08:15;3.80;;;2.33;;
7211;SDS011;3647;48.792;9.802;2023-06-04T14:10:42;4.03;;;2.80;;
7211;SDS011;3647;48.792;9.802;2023-06-04T14:13:09;3.45;;;2.50;;
7211;SDS011;3647;48.792;9.802;2023-06-04T14:15:38;2.97;;;2.67;;
7211;SDS011;3647;48.792;9.802;2023-06-04T14:18:05;4.68;;;2.85;;
7211;SDS011;3647;48.792;9.802;2023-06-04T14:20:32;3.15;;;2.67;;
7211;SDS011;3647;48.792;9.802;2023-06-04T14:22:59;2.58;;;2.38;;
7211;SDS011;3647;48.792;9.802;2023-06-04T14:25:26;4.25;;;2.53;;
7211;SDS011;3647;48.792;9.802;2023-06-04T14:27:53;3.47;;;2.25;;
7211;SDS011;3647;48.792;9.802;2023-06-04T14:30:19;4.20;;;2.88;;
7211;SDS011;3647;48.792;9.802;2023-06-04T14:32:47;2.97;;;2.65;;
7211;SDS011;3647;48.792;9.802;2023-06-04T14:35:14;4.20;;;2.58;;
7211;SDS011;3647;48.792;9.802;2023-06-04T14:37:41;3.28;;;2.67;;
7211;SDS011;3647;48.792;9.802;2023-06-04T14:40:08;2.75;;;2.35;;
7211;SDS011;3647;48.792;9.802;2023-06-04T14:42:35;3.95;;;2.95;;
7211;SDS011;3647;48.792;9.802;2023-06-04T14:45:02;3.47;;;2.50;;
7211;SDS011;3647;48.792;9.802;2023-06-04T14:47:29;3.22;;;2.60;;
7211;SDS011;3647;48.792;9.802;2023-06-04T14:49:57;3.25;;;2.45;;
7211;SDS011;3647;48.792;9.802;2023-06-04T14:52:24;3.53;;;2.90;;
7211;SDS011;3647;48.792;9.802;2023-06-04T14:54:52;3.97;;;2.50;;
7211;SDS011;3647;48.792;9.802;2023-06-04T14:57:19;4.78;;;2.67;;
7211;SDS011;3647;48.792;9.802;2023-06-04T14:59:47;2.83;;;2.17;;
7211;SDS011;3647;48.792;9.802;2023-06-04T15:02:15;5.82;;;2.60;;
7211;SDS011;3647;48.792;9.802;2023-06-04T15:04:44;2.50;;;2.30;;
7211;SDS011;3647;48.792;9.802;2023-06-04T15:07:12;2.92;;;2.60;;
7211;SDS011;3647;48.792;9.802;2023-06-04T15:09:39;2.88;;;2.60;;
7211;SDS011;3647;48.792;9.802;2023-06-04T15:12:06;2.75;;;2.05;;
7211;SDS011;3647;48.792;9.802;2023-06-04T15:14:33;2.70;;;2.30;;
7211;SDS011;3647;48.792;9.802;2023-06-04T15:17:00;4.88;;;2.90;;
7211;SDS011;3647;48.792;9.802;2023-06-04T15:19:26;3.33;;;2.50;;